Time;durP1;ratioP1;P1;durP2;ratioP2;P2;SDS_P1;SDS_P2;PMS_P1;PMS_P2;Temp;Humidity;BMP_temperature;BMP_pressure;BME280_temperature;BME280_humidity;BME280_pressure;Samples;Min_cycle;Max_cycle;Signal;HPM_P1;HPM_P2
2024/01/28 00:01:36;;;;;;;18.70;8.85;;;;;;;;;;5044303;28;20365;-89
2024/01/28 00:04:21;;;;;;;18.58;8.60;;;;;;;;;;5038036;28;20029;-86
2024/01/28 00:07:07;;;;;;;21.00;8.00;;;;;;;;;;5042734;28;20550;-89
2024/01/28 00:09:52;;;;;;;19.65;8.77;;;;;;;;;;5016655;28;20032;-89
2024/01/28 00:12:37;;;;;;;15.77;8.38;;;;;;;;;;5045384;28;20039;-88
2024/01/28 00:15:22;;;;;;;18.10;7.93;;;;;;;;;;5040318;28;20048;-88
2024/01/28 00:18:08;;;;;;;14.23;8.18;;;;;;;;;;5037665;28;20449;-88
2024/01/28 00:20:53;;;;;;;16.02;7.32;;;;;;;;;;5026478;28;20549;-87
2024/01/28 00:23:38;;;;;;;17.52;8.02;;;;;;;;;;5030002;28;20068;-90
2024/01/28 00:26:24;;;;;;;14.63;7.97;;;;;;;;;;5043110;28;20040;-90
2024/01/28 00:29:09;;;;;;;15.13;8.23;;;;;;;;;;5039647;28;20119;-89
2024/01/28 00:31:55;;;;;;;12.10;7.13;;;;;;;;;;5036202;28;20036;-89
2024/01/28 00:34:41;;;;;;;16.27;7.63;;;;;;;;;;5060499;28;20540;-89
2024/01/28 00:37:26;;;;;;;16.63;7.75;;;;;;;;;;5055708;28;20078;-86
2024/01/28 00:40:11;;;;;;;14.57;7.82;;;;;;;;;;5045263;28;20434;-86
2024/01/28 00:42:57;;;;;;;16.45;7.72;;;;;;;;;;5051537;28;20235;-86
2024/01/28 00:45:42;;;;;;;14.30;7.30;;;;;;;;;;5051163;28;20057;-85
2024/01/28 00:48:27;;;;;;;18.13;7.18;;;;;;;;;;5051157;28;20352;-86
2024/01/28 00:51:13;;;;;;;15.00;7.63;;;;;;;;;;5060101;28;20092;-87
2024/01/28 00:54:07;;;;;;;13.73;6.60;;;;;;;;;;5054242;28;20056;-87
2024/01/28 00:56:56;;;;;;;16.50;6.63;;;;;;;;;;5047701;28;20037;-86
2024/01/28 00:59:42;;;;;;;10.68;6.28;;;;;;;;;;5037768;28;20025;-86
2024/01/28 01:02:27;;;;;;;11.15;6.22;;;;;;;;;;5039913;28;20123;-86
2024/01/28 01:05:12;;;;;;;13.13;7.00;;;;;;;;;;5053684;28;20108;-85
2024/01/28 01:07:58;;;;;;;18.23;6.68;;;;;;;;;;5059943;28;20035;-86
2024/01/28 01:10:43;;;;;;;10.45;6.40;;;;;;;;;;5041875;28;20024;-86
2024/01/28 01:13:34;;;;;;;10.50;5.85;;;;;;;;;;5050395;28;20027;-87
2024/01/28 01:16:19;;;;;;;11.30;6.30;;;;;;;;;;5052464;28;20142;-86
2024/01/28 01:19:05;;;;;;;16.10;7.90;;;;;;;;;;5059141;28;20028;-88
2024/01/28 01:21:51;;;;;;;14.02;6.97;;;;;;;;;;5055496;28;20023;-88
2024/01/28 01:24:36;;;;;;;15.27;6.72;;;;;;;;;;5043454;28;20028;-88
2024/01/28 01:27:21;;;;;;;12.13;6.95;;;;;;;;;;5071465;28;20017;-88
2024/01/28 01:30:07;;;;;;;13.48;6.40;;;;;;;;;;5060851;28;20020;-88
2024/01/28 01:32:52;;;;;;;12.15;5.88;;;;;;;;;;5049103;28;20136;-85
2024/01/28 01:35:38;;;;;;;16.25;7.43;;;;;;;;;;5040828;28;20525;-87
2024/01/28 01:38:23;;;;;;;13.77;5.55;;;;;;;;;;5064350;28;20054;-85
2024/01/28 01:41:08;;;;;;;13.00;6.63;;;;;;;;;;5046031;28;20036;-87
2024/01/28 01:43:53;;;;;;;11.10;5.65;;;;;;;;;;5046138;28;20032;-86
2024/01/28 01:46:42;;;;;;;11.40;5.85;;;;;;;;;;5063164;28;20024;-86
2024/01/28 01:49:27;;;;;;;10.40;5.25;;;;;;;;;;5055894;28;20032;-87
2024/01/28 01:52:16;;;;;;;11.20;6.18;;;;;;;;;;5059486;28;20092;-88
2024/01/28 01:55:01;;;;;;;12.88;6.45;;;;;;;;;;5061587;28;20024;-89
2024/01/28 01:57:47;;;;;;;12.00;6.18;;;;;;;;;;5060158;28;20050;-87
2024/01/28 02:00:34;;;;;;;11.10;5.97;;;;;;;;;;5060906;28;20028;-89
2024/01/28 02:03:19;;;;;;;11.55;5.55;;;;;;;;;;5062015;28;20507;-87
2024/01/28 02:06:06;;;;;;;12.02;5.90;;;;;;;;;;5056578;28;20024;-87
2024/01/28 02:08:52;;;;;;;15.18;6.45;;;;;;;;;;5054620;28;20031;-86
2024/01/28 02:11:37;;;;;;;13.50;6.18;;;;;;;;;;5045239;28;20124;-87
2024/01/28 02:14:23;;;;;;;15.10;6.53;;;;;;;;;;5060141;28;20329;-87
2024/01/28 02:17:08;;;;;;;12.68;6.03;;;;;;;;;;5048578;28;20036;-86
2024/01/28 02:19:54;;;;;;;10.30;5.25;;;;;;;;;;5059166;28;20037;-86
2024/01/28 02:22:39;;;;;;;14.65;6.88;;;;;;;;;;5048993;28;20485;-86
2024/01/28 02:25:24;;;;;;;11.57;5.40;;;;;;;;;;5045819;28;20542;-85
2024/01/28 02:28:10;;;;;;;13.25;5.22;;;;;;;;;;5050714;28;20042;-87
2024/01/28 02:30:55;;;;;;;10.82;5.57;;;;;;;;;;5059331;28;20030;-87
2024/01/28 02:33:40;;;;;;;12.88;6.80;;;;;;;;;;5057465;28;20067;-87
2024/01/28 02:36:26;;;;;;;9.82;4.80;;;;;;;;;;5058438;28;20431;-88
2024/01/28 02:39:12;;;;;;;9.63;4.80;;;;;;;;;;5061365;28;20083;-89
2024/01/28 02:41:58;;;;;;;11.18;5.53;;;;;;;;;;5059589;28;20074;-88
2024/01/28 02:44:43;;;;;;;11.52;5.65;;;;;;;;;;5060753;28;20034;-87
2024/01/28 02:47:28;;;;;;;9.80;5.60;;;;;;;;;;5053338;28;20043;-87
2024/01/28 02:50:13;;;;;;;16.00;5.85;;;;;;;;;;5040298;28;20106;-86
2024/01/28 02:52:59;;;;;;;11.15;5.43;;;;;;;;;;5061163;28;20114;-85
2024/01/28 02:55:44;;;;;;;10.60;5.55;;;;;;;;;;5063870;28;20020;-87
2024/01/28 02:58:30;;;;;;;12.13;5.85;;;;;;;;;;5048974;28;20024;-87
2024/01/28 03:01:16;;;;;;;9.85;5.13;;;;;;;;;;5056313;28;20024;-86
2024/01/28 03:04:01;;;;;;;14.05;6.88;;;;;;;;;;5052019;28;20378;-85
2024/01/28 03:06:46;;;;;;;11.20;5.88;;;;;;;;;;5058654;28;20033;-85
2024/01/28 03:09:34;;;;;;;12.40;6.72;;;;;;;;;;5059756;28;20546;-87
2024/01/28 03:12:19;;;;;;;10.55;5.68;;;;;;;;;;5057277;28;20043;-88
2024/01/28 03:15:05;;;;;;;17.10;6.50;;;;;;;;;;5065395;28;20028;-87
2024/01/28 03:17:51;;;;;;;8.80;5.82;;;;;;;;;;5047047;28;20081;-87
2024/01/28 03:20:36;;;;;;;12.75;6.07;;;;;;;;;;5055911;28;20467;-86
2024/01/28 03:23:21;;;;;;;10.02;5.47;;;;;;;;;;5057942;28;20032;-86
2024/01/28 03:26:09;;;;;;;13.63;5.43;;;;;;;;;;5059304;28;20067;-87
2024/01/28 03:28:54;;;;;;;10.02;5.45;;;;;;;;;;5054584;28;20478;-85
2024/01/28 03:31:40;;;;;;;11.82;5.13;;;;;;;;;;5058459;28;20041;-86
2024/01/28 03:34:25;;;;;;;10.52;5.05;;;;;;;;;;5055510;28;20036;-86
2024/01/28 03:37:11;;;;;;;13.40;6.10;;;;;;;;;;5053130;28;20024;-87
2024/01/28 03:39:56;;;;;;;10.35;5.35;;;;;;;;;;5074558;28;20020;-86
2024/01/28 03:42:41;;;;;;;12.52;5.72;;;;;;;;;;5064662;28;20031;-88
2024/01/28 03:45:27;;;;;;;12.77;5.90;;;;;;;;;;5058034;28;20029;-86
2024/01/28 03:48:12;;;;;;;11.82;6.28;;;;;;;;;;5062067;28;20034;-88
2024/01/28 03:50:57;;;;;;;8.95;4.75;;;;;;;;;;5038739;28;20032;-86
2024/01/28 03:53:43;;;;;;;9.77;5.82;;;;;;;;;;5066419;28;20027;-87
2024/01/28 03:56:28;;;;;;;13.40;5.55;;;;;;;;;;5059010;28;20445;-87
2024/01/28 03:59:13;;;;;;;11.52;6.32;;;;;;;;;;5059138;28;20165;-87
2024/01/28 04:02:00;;;;;;;13.60;6.30;;;;;;;;;;5049319;28;20028;-87
2024/01/28 04:04:45;;;;;;;12.15;7.72;;;;;;;;;;5055854;28;20095;-87
2024/01/28 04:07:30;;;;;;;10.75;5.57;;;;;;;;;;5060211;28;20072;-87
2024/01/28 04:10:16;;;;;;;11.85;6.28;;;;;;;;;;5064633;28;20016;-88
2024/01/28 04:13:01;;;;;;;8.00;4.72;;;;;;;;;;5057069;28;20032;-86
2024/01/28 04:15:47;;;;;;;12.73;6.15;;;;;;;;;;5062184;28;20051;-87
2024/01/28 04:18:32;;;;;;;13.95;6.25;;;;;;;;;;5054852;28;20063;-88
2024/01/28 04:21:17;;;;;;;12.90;6.38;;;;;;;;;;5063589;28;20020;-87
2024/01/28 04:24:03;;;;;;;12.55;5.90;;;;;;;;;;5058331;28;20085;-86
2024/01/28 04:26:49;;;;;;;11.05;5.90;;;;;;;;;;5065228;28;20020;-85
2024/01/28 04:29:36;;;;;;;10.52;6.25;;;;;;;;;;5054710;28;20676;-88
2024/01/28 04:32:21;;;;;;;11.10;6.15;;;;;;;;;;5047015;28;20222;-87
2024/01/28 04:35:10;;;;;;;10.02;5.78;;;;;;;;;;5062652;28;20366;-89
2024/01/28 04:37:56;;;;;;;13.32;6.72;;;;;;;;;;5059195;28;20094;-86
2024/01/28 04:40:42;;;;;;;10.02;5.22;;;;;;;;;;5046767;28;20017;-87
2024/01/28 04:43:27;;;;;;;11.55;5.75;;;;;;;;;;5042787;28;20059;-87
2024/01/28 04:46:14;;;;;;;10.85;6.10;;;;;;;;;;5059969;28;20467;-88
2024/01/28 04:49:05;;;;;;;14.32;6.88;;;;;;;;;;5054757;28;20045;-86
2024/01/28 04:51:51;;;;;;;14.60;5.95;;;;;;;;;;5068122;28;20541;-86
2024/01/28 04:54:36;;;;;;;11.55;5.60;;;;;;;;;;5056123;28;20161;-87
2024/01/28 04:57:22;;;;;;;11.85;5.88;;;;;;;;;;5054617;28;20461;-86
2024/01/28 05:00:10;;;;;;;10.77;5.13;;;;;;;;;;5051932;28;20032;-86
2024/01/28 05:02:56;;;;;;;11.23;5.50;;;;;;;;;;5045611;28;20020;-87
2024/01/28 05:05:41;;;;;;;12.02;5.80;;;;;;;;;;5049285;28;20027;-87
2024/01/28 05:08:26;;;;;;;12.82;6.40;;;;;;;;;;5045523;28;20413;-87
2024/01/28 05:11:12;;;;;;;10.65;6.25;;;;;;;;;;5058522;28;20025;-84
2024/01/28 05:13:58;;;;;;;9.15;5.65;;;;;;;;;;5049609;28;20024;-86
2024/01/28 05:16:47;;;;;;;10.40;5.50;;;;;;;;;;5050983;28;20020;-85
2024/01/28 05:19:32;;;;;;;10.45;6.15;;;;;;;;;;5051698;28;20052;-86
2024/01/28 05:22:19;;;;;;;11.57;5.50;;;;;;;;;;5063459;28;20029;-86
2024/01/28 05:25:05;;;;;;;11.00;5.15;;;;;;;;;;5045114;28;20036;-85
2024/01/28 05:27:50;;;;;;;12.00;5.47;;;;;;;;;;5060147;28;20023;-86
2024/01/28 05:30:35;;;;;;;9.93;5.03;;;;;;;;;;5058447;28;20012;-86
2024/01/28 05:33:20;;;;;;;11.00;5.80;;;;;;;;;;5058356;28;20051;-87
2024/01/28 05:36:13;;;;;;;11.70;5.00;;;;;;;;;;5055877;28;20091;-87
2024/01/28 05:38:58;;;;;;;12.63;5.63;;;;;;;;;;5058315;28;20019;-86
2024/01/28 05:41:43;;;;;;;12.73;5.82;;;;;;;;;;5058707;28;20016;-86
2024/01/28 05:44:29;;;;;;;8.95;5.40;;;;;;;;;;5071874;28;20035;-87
2024/01/28 05:47:14;;;;;;;11.70;5.13;;;;;;;;;;5067922;28;20502;-87
2024/01/28 05:49:59;;;;;;;12.90;5.97;;;;;;;;;;5058353;28;20258;-86
2024/01/28 05:52:45;;;;;;;13.73;6.15;;;;;;;;;;5046213;28;20032;-86
2024/01/28 05:55:30;;;;;;;13.95;6.10;;;;;;;;;;5052553;28;20016;-86
2024/01/28 05:58:16;;;;;;;13.13;5.78;;;;;;;;;;5060210;28;20107;-86
2024/01/28 06:01:05;;;;;;;11.80;5.93;;;;;;;;;;5056275;28;20118;-86
2024/01/28 06:03:51;;;;;;;11.82;6.18;;;;;;;;;;5047028;28;20028;-87
2024/01/28 06:06:36;;;;;;;9.27;5.60;;;;;;;;;;5055529;28;20074;-86
2024/01/28 06:09:21;;;;;;;13.02;6.55;;;;;;;;;;5055184;28;20043;-86
2024/01/28 06:12:07;;;;;;;11.63;5.72;;;;;;;;;;5059431;28;20024;-87
2024/01/28 06:14:57;;;;;;;12.57;5.57;;;;;;;;;;5060626;28;20047;-88
2024/01/28 06:17:42;;;;;;;15.05;5.88;;;;;;;;;;5058182;28;20031;-87
2024/01/28 06:20:28;;;;;;;12.20;5.63;;;;;;;;;;5062002;28;20424;-87
2024/01/28 06:23:13;;;;;;;13.02;5.88;;;;;;;;;;5039519;28;20016;-86
2024/01/28 06:25:58;;;;;;;11.80;5.43;;;;;;;;;;5055661;28;20013;-86
2024/01/28 06:28:49;;;;;;;11.40;6.28;;;;;;;;;;5064287;28;20040;-87
2024/01/28 06:31:34;;;;;;;12.48;6.28;;;;;;;;;;5053236;28;20013;-86
2024/01/28 06:34:20;;;;;;;12.45;6.18;;;;;;;;;;5044649;28;20809;-86
2024/01/28 06:37:05;;;;;;;11.75;6.13;;;;;;;;;;5064595;28;20212;-87
2024/01/28 06:39:51;;;;;;;15.50;6.72;;;;;;;;;;5074748;28;20023;-87
2024/01/28 06:42:35;;;;;;;12.98;6.28;;;;;;;;;;5089928;28;20102;-86
2024/01/28 06:45:19;;;;;;;10.80;5.97;;;;;;;;;;5086478;28;20335;-87
2024/01/28 06:48:22;;;;;;;11.18;5.93;;;;;;;;;;5077617;28;20032;-86
2024/01/28 06:51:26;;;;;;;10.38;5.57;;;;;;;;;;5037554;28;20079;-87
2024/01/28 06:54:11;;;;;;;17.00;6.15;;;;;;;;;;5033514;28;20459;-87
2024/01/28 06:56:57;;;;;;;12.80;6.22;;;;;;;;;;5040411;28;20031;-88
2024/01/28 06:59:43;;;;;;;14.70;6.28;;;;;;;;;;5051684;28;20031;-88
2024/01/28 07:02:30;;;;;;;9.63;5.30;;;;;;;;;;5053758;28;20027;-87
2024/01/28 07:05:15;;;;;;;12.43;6.90;;;;;;;;;;5054339;28;20020;-87
2024/01/28 07:08:01;;;;;;;9.82;5.95;;;;;;;;;;5054202;28;20394;-85
2024/01/28 07:10:46;;;;;;;14.05;6.88;;;;;;;;;;5060554;28;20021;-87
2024/01/28 07:13:31;;;;;;;15.77;6.72;;;;;;;;;;5055579;28;20389;-88
2024/01/28 07:16:18;;;;;;;11.23;6.35;;;;;;;;;;5063698;28;20099;-87
2024/01/28 07:19:03;;;;;;;15.55;6.82;;;;;;;;;;5056060;28;20024;-86
2024/01/28 07:21:50;;;;;;;12.65;6.97;;;;;;;;;;5060428;28;20029;-86
2024/01/28 07:24:36;;;;;;;12.00;6.13;;;;;;;;;;5056671;28;20023;-86
2024/01/28 07:27:21;;;;;;;13.77;6.22;;;;;;;;;;5046364;28;20082;-86
2024/01/28 07:30:07;;;;;;;12.70;7.03;;;;;;;;;;5059055;28;20037;-86
2024/01/28 07:32:55;;;;;;;16.02;6.97;;;;;;;;;;5058084;28;20779;-83
2024/01/28 07:35:40;;;;;;;13.88;7.00;;;;;;;;;;5066957;28;20023;-84
2024/01/28 07:38:25;;;;;;;12.82;6.32;;;;;;;;;;5046956;28;20020;-84
2024/01/28 07:41:16;;;;;;;12.13;6.82;;;;;;;;;;5053333;28;20085;-86
2024/01/28 07:44:02;;;;;;;14.10;6.75;;;;;;;;;;5049597;28;20043;-85
2024/01/28 07:46:47;;;;;;;12.02;6.82;;;;;;;;;;5059340;28;20112;-85
2024/01/28 07:49:33;;;;;;;14.13;7.28;;;;;;;;;;5059259;28;20114;-85
2024/01/28 07:52:18;;;;;;;17.45;7.38;;;;;;;;;;5043017;28;20404;-85
2024/01/28 07:55:03;;;;;;;10.90;6.60;;;;;;;;;;5052681;28;20028;-85
2024/01/28 07:57:49;;;;;;;15.23;6.38;;;;;;;;;;5054634;28;20040;-84
2024/01/28 08:00:43;;;;;;;14.73;8.00;;;;;;;;;;5052241;28;20506;-86
2024/01/28 08:03:31;;;;;;;15.82;7.63;;;;;;;;;;5052451;28;20037;-85
2024/01/28 08:06:16;;;;;;;14.35;7.45;;;;;;;;;;5049573;28;20033;-86
2024/01/28 08:09:02;;;;;;;13.45;7.65;;;;;;;;;;5063559;28;20031;-89
2024/01/28 08:11:47;;;;;;;17.98;7.15;;;;;;;;;;5048055;28;20123;-88
2024/01/28 08:14:32;;;;;;;11.52;6.55;;;;;;;;;;5053608;28;20093;-83
2024/01/28 08:17:18;;;;;;;11.70;7.22;;;;;;;;;;5055138;28;20020;-88
2024/01/28 08:20:03;;;;;;;15.32;7.65;;;;;;;;;;5060191;28;20042;-87
2024/01/28 08:22:50;;;;;;;14.15;7.60;;;;;;;;;;5053187;28;20029;-89
2024/01/28 08:25:35;;;;;;;16.30;7.10;;;;;;;;;;5045420;28;20434;-89
2024/01/28 08:28:21;;;;;;;13.80;8.32;;;;;;;;;;5058787;28;20059;-88
2024/01/28 08:31:06;;;;;;;18.65;6.85;;;;;;;;;;5063668;28;20063;-88
2024/01/28 08:33:52;;;;;;;13.32;7.20;;;;;;;;;;5031255;28;20060;-88
2024/01/28 08:36:37;;;;;;;16.92;9.50;;;;;;;;;;5045218;28;20024;-87
2024/01/28 08:39:23;;;;;;;17.77;8.57;;;;;;;;;;5034351;28;20025;-87
2024/01/28 08:42:08;;;;;;;15.23;7.38;;;;;;;;;;5035247;28;20032;-86
2024/01/28 08:44:53;;;;;;;19.80;8.05;;;;;;;;;;5033523;28;20047;-87
2024/01/28 08:47:39;;;;;;;15.88;8.68;;;;;;;;;;5038296;28;20025;-85
2024/01/28 08:50:24;;;;;;;16.13;7.78;;;;;;;;;;5043101;28;20060;-82
2024/01/28 08:53:09;;;;;;;14.25;7.47;;;;;;;;;;5040693;28;20021;-85
2024/01/28 08:55:55;;;;;;;14.20;7.75;;;;;;;;;;5032212;28;20033;-87
2024/01/28 08:58:40;;;;;;;13.57;8.48;;;;;;;;;;5031925;28;20534;-88
2024/01/28 09:01:27;;;;;;;13.88;7.93;;;;;;;;;;5041378;28;20075;-88
2024/01/28 09:04:12;;;;;;;13.10;7.93;;;;;;;;;;5044932;28;20064;-87
2024/01/28 09:06:57;;;;;;;13.50;8.15;;;;;;;;;;5046137;28;20029;-88
2024/01/28 09:09:42;;;;;;;12.65;8.18;;;;;;;;;;5038610;28;20021;-89
2024/01/28 09:12:27;;;;;;;14.07;8.05;;;;;;;;;;5037676;28;20055;-88
2024/01/28 09:15:13;;;;;;;15.77;7.82;;;;;;;;;;5043246;28;20017;-87
2024/01/28 09:17:58;;;;;;;13.30;8.00;;;;;;;;;;5026382;28;20045;-88
2024/01/28 09:20:43;;;;;;;16.27;7.93;;;;;;;;;;5033932;28;20104;-89
2024/01/28 09:23:28;;;;;;;14.88;8.73;;;;;;;;;;5033644;28;20025;-88
2024/01/28 09:26:14;;;;;;;14.95;8.32;;;;;;;;;;5022921;28;20053;-89
2024/01/28 09:29:02;;;;;;;14.38;8.52;;;;;;;;;;5033975;28;20028;-87
2024/01/28 09:31:48;;;;;;;13.55;8.32;;;;;;;;;;5027121;28;20025;-90
2024/01/28 09:34:33;;;;;;;12.20;8.13;;;;;;;;;;5035750;28;20048;-90
2024/01/28 09:37:18;;;;;;;16.90;9.35;;;;;;;;;;5035709;28;20025;-90
2024/01/28 09:40:04;;;;;;;13.13;6.88;;;;;;;;;;5035257;28;20040;-88
2024/01/28 09:42:59;;;;;;;15.80;7.15;;;;;;;;;;5038606;28;20028;-93
2024/01/28 09:45:44;;;;;;;11.93;7.18;;;;;;;;;;5020406;28;20494;-87
2024/01/28 09:48:30;;;;;;;13.90;7.07;;;;;;;;;;5031320;28;20060;-87
2024/01/28 09:51:15;;;;;;;13.40;7.13;;;;;;;;;;5034577;28;20033;-86
2024/01/28 09:54:01;;;;;;;12.07;6.82;;;;;;;;;;5029962;28;20118;-87
2024/01/28 09:56:47;;;;;;;12.55;6.38;;;;;;;;;;5043634;28;20076;-86
2024/01/28 09:59:33;;;;;;;10.88;7.18;;;;;;;;;;5040018;28;20028;-88
2024/01/28 10:02:20;;;;;;;15.25;7.07;;;;;;;;;;5015027;28;20029;-86
2024/01/28 10:05:10;;;;;;;12.25;7.20;;;;;;;;;;5030328;28;20037;-86
2024/01/28 10:08:00;;;;;;;12.63;7.03;;;;;;;;;;5038611;28;20414;-85
2024/01/28 10:10:46;;;;;;;15.18;7.60;;;;;;;;;;5029326;28;20029;-87
2024/01/28 10:13:32;;;;;;;12.50;7.88;;;;;;;;;;5023789;28;20033;-89
2024/01/28 10:16:21;;;;;;;15.48;7.32;;;;;;;;;;5034950;28;20070;-88
2024/01/28 10:19:07;;;;;;;14.63;7.32;;;;;;;;;;5033841;28;20595;-89
2024/01/28 10:21:52;;;;;;;14.15;8.02;;;;;;;;;;5044091;28;20024;-90
2024/01/28 10:24:41;;;;;;;12.85;5.97;;;;;;;;;;5032245;28;20036;-89
2024/01/28 10:27:26;;;;;;;11.15;6.93;;;;;;;;;;5028124;28;20025;-89
2024/01/28 10:30:12;;;;;;;14.13;6.97;;;;;;;;;;5046805;28;20039;-91
2024/01/28 10:32:57;;;;;;;15.65;7.78;;;;;;;;;;5037161;28;20032;-90
2024/01/28 10:35:43;;;;;;;15.77;7.65;;;;;;;;;;5054908;28;20024;-90
2024/01/28 10:38:30;;;;;;;13.82;7.20;;;;;;;;;;5056025;28;20048;-86
2024/01/28 10:41:17;;;;;;;14.60;7.70;;;;;;;;;;5052310;28;20029;-84
2024/01/28 10:44:06;;;;;;;12.13;6.88;;;;;;;;;;5051889;28;20027;-85
2024/01/28 10:46:54;;;;;;;15.30;9.15;;;;;;;;;;5054443;28;20040;-85
2024/01/28 10:49:40;;;;;;;13.65;7.18;;;;;;;;;;5052694;28;20733;-81
2024/01/28 10:52:26;;;;;;;11.50;6.55;;;;;;;;;;5059457;28;20157;-85
2024/01/28 10:55:11;;;;;;;11.85;7.60;;;;;;;;;;5051983;28;20371;-84
2024/01/28 10:57:57;;;;;;;15.93;6.93;;;;;;;;;;5041230;28;20024;-83
2024/01/28 11:00:43;;;;;;;14.20;7.50;;;;;;;;;;5048116;28;20039;-83
2024/01/28 11:03:28;;;;;;;12.57;7.00;;;;;;;;;;5033217;28;20041;-84
2024/01/28 11:06:17;;;;;;;10.82;6.25;;;;;;;;;;5052229;28;20025;-77
2024/01/28 11:09:14;;;;;;;10.80;6.15;;;;;;;;;;5055154;28;20170;-85
2024/01/28 11:12:12;;;;;;;11.57;5.47;;;;;;;;;;5046996;28;20029;-86
2024/01/28 11:14:57;;;;;;;9.55;5.68;;;;;;;;;;5045408;28;20087;-85
2024/01/28 11:17:42;;;;;;;13.85;6.38;;;;;;;;;;5063547;28;20108;-86
2024/01/28 11:20:31;;;;;;;16.05;6.78;;;;;;;;;;5048291;28;20600;-85
2024/01/28 11:23:16;;;;;;;9.07;5.75;;;;;;;;;;5047000;28;20403;-86
2024/01/28 11:26:02;;;;;;;11.80;6.15;;;;;;;;;;5047715;28;20083;-84
2024/01/28 11:28:57;;;;;;;13.90;6.22;;;;;;;;;;5065655;28;20020;-85
2024/01/28 11:31:44;;;;;;;10.75;5.20;;;;;;;;;;5066984;28;20441;-85
2024/01/28 11:34:29;;;;;;;10.95;6.35;;;;;;;;;;5055560;28;20089;-85
2024/01/28 11:37:18;;;;;;;12.68;6.13;;;;;;;;;;5031643;28;20127;-86
2024/01/28 11:40:10;;;;;;;13.00;6.90;;;;;;;;;;5038798;28;20498;-86
2024/01/28 11:42:55;;;;;;;11.43;6.95;;;;;;;;;;5047899;28;20031;-86
2024/01/28 11:45:49;;;;;;;13.10;6.50;;;;;;;;;;5044898;28;20067;-87
2024/01/28 11:48:41;;;;;;;10.07;6.65;;;;;;;;;;5049345;28;20032;-87
2024/01/28 11:51:28;;;;;;;12.02;6.63;;;;;;;;;;5045710;28;20032;-88
2024/01/28 11:54:13;;;;;;;11.70;6.68;;;;;;;;;;5047770;28;20110;-85
2024/01/28 11:57:02;;;;;;;12.65;6.10;;;;;;;;;;5035808;28;20081;-86
2024/01/28 11:59:48;;;;;;;11.43;6.47;;;;;;;;;;5032119;28;20024;-86
2024/01/28 12:02:35;;;;;;;11.50;5.82;;;;;;;;;;5038153;28;20033;-87
2024/01/28 12:05:21;;;;;;;9.55;6.13;;;;;;;;;;5046720;28;20021;-87
2024/01/28 12:08:08;;;;;;;11.45;6.85;;;;;;;;;;5048957;28;20037;-87
2024/01/28 12:10:57;;;;;;;12.90;7.20;;;;;;;;;;5050451;28;20451;-87
2024/01/28 12:13:43;;;;;;;11.45;7.05;;;;;;;;;;5052049;28;20624;-87
2024/01/28 12:16:37;;;;;;;13.27;6.95;;;;;;;;;;5052549;28;20056;-86
2024/01/28 12:19:22;;;;;;;10.48;7.05;;;;;;;;;;5057808;28;20087;-88
2024/01/28 12:22:11;;;;;;;10.32;6.47;;;;;;;;;;5053180;28;20032;-88
2024/01/28 12:24:57;;;;;;;;;;;;;;;;;;5050533;28;20067;-87
2024/01/28 12:27:43;;;;;;;10.90;5.63;;;;;;;;;;5044970;28;20524;-86
2024/01/28 12:30:28;;;;;;;11.20;6.05;;;;;;;;;;5063787;28;20021;-85
2024/01/28 12:33:13;;;;;;;7.28;5.05;;;;;;;;;;5046456;28;20045;-85
2024/01/28 12:35:59;;;;;;;8.75;5.03;;;;;;;;;;5045919;28;20041;-86
2024/01/28 12:38:45;;;;;;;9.30;5.13;;;;;;;;;;5045188;28;20033;-85
2024/01/28 12:41:30;;;;;;;10.52;5.50;;;;;;;;;;5040420;28;20070;-88
2024/01/28 12:44:15;;;;;;;10.65;5.90;;;;;;;;;;5029918;28;20087;-87
2024/01/28 12:47:01;;;;;;;8.38;4.70;;;;;;;;;;5055522;28;20028;-87
2024/01/28 12:49:46;;;;;;;7.85;4.90;;;;;;;;;;5040853;28;20475;-85
2024/01/28 12:52:32;;;;;;;8.13;5.03;;;;;;;;;;5031515;28;20037;-87
2024/01/28 12:55:16;;;;;;;8.55;4.97;;;;;;;;;;5047922;28;20093;-87
2024/01/28 12:58:00;;;;;;;7.93;5.22;;;;;;;;;;5059548;28;20043;-87
2024/01/28 13:00:45;;;;;;;9.43;5.30;;;;;;;;;;5043656;28;20056;-87
2024/01/28 13:03:31;;;;;;;13.38;5.35;;;;;;;;;;5036849;28;20064;-87
2024/01/28 13:06:16;;;;;;;12.57;5.55;;;;;;;;;;5041150;28;20028;-87
2024/01/28 13:09:01;;;;;;;10.52;6.00;;;;;;;;;;5038318;28;20033;-87
2024/01/28 13:11:46;;;;;;;14.50;7.30;;;;;;;;;;5042138;28;20116;-88
2024/01/28 13:14:32;;;;;;;12.25;6.90;;;;;;;;;;5044198;28;20028;-85
2024/01/28 13:17:17;;;;;;;10.32;6.00;;;;;;;;;;5031746;28;20029;-87
2024/01/28 13:20:06;;;;;;;9.32;5.05;;;;;;;;;;5039975;28;20040;-86
2024/01/28 13:22:51;;;;;;;7.30;4.05;;;;;;;;;;5031614;28;20069;-86
2024/01/28 13:25:36;;;;;;;9.10;4.88;;;;;;;;;;5036650;28;20089;-86
2024/01/28 13:28:21;;;;;;;9.00;4.47;;;;;;;;;;5050064;28;20032;-88
2024/01/28 13:31:06;;;;;;;8.18;4.45;;;;;;;;;;5043373;28;20017;-88
2024/01/28 13:33:52;;;;;;;7.03;3.70;;;;;;;;;;5033480;28;20084;-87
2024/01/28 13:36:37;;;;;;;5.82;2.95;;;;;;;;;;5051495;28;20036;-88
2024/01/28 13:39:22;;;;;;;5.53;3.63;;;;;;;;;;5050974;28;20029;-88
2024/01/28 13:42:08;;;;;;;10.32;3.53;;;;;;;;;;5034161;28;20021;-87
2024/01/28 13:44:53;;;;;;;6.00;2.97;;;;;;;;;;5036126;28;20092;-86
2024/01/28 13:47:40;;;;;;;6.53;3.35;;;;;;;;;;5054148;28;20533;-88
2024/01/28 13:50:25;;;;;;;5.82;3.28;;;;;;;;;;5066144;28;20073;-87
2024/01/28 13:53:10;;;;;;;6.13;3.13;;;;;;;;;;5035500;28;20071;-87
2024/01/28 13:55:56;;;;;;;7.72;3.28;;;;;;;;;;5038196;28;20104;-86
2024/01/28 13:58:41;;;;;;;6.93;3.42;;;;;;;;;;5054586;28;20028;-87
2024/01/28 14:01:26;;;;;;;5.80;3.10;;;;;;;;;;5053045;28;20036;-86
2024/01/28 14:04:13;;;;;;;4.88;2.78;;;;;;;;;;5055027;28;20028;-87
2024/01/28 14:06:58;;;;;;;5.88;3.20;;;;;;;;;;5055519;28;20032;-83
2024/01/28 14:09:43;;;;;;;6.57;2.90;;;;;;;;;;5067029;28;20028;-80
2024/01/28 14:12:29;;;;;;;6.88;3.38;;;;;;;;;;5075450;28;20023;-89
2024/01/28 14:15:14;;;;;;;7.70;3.53;;;;;;;;;;5068213;28;20027;-84
2024/01/28 14:17:59;;;;;;;8.02;3.78;;;;;;;;;;5052963;28;20032;-83
2024/01/28 14:20:45;;;;;;;6.97;4.15;;;;;;;;;;5044069;28;20037;-84
2024/01/28 14:23:30;;;;;;;5.40;3.47;;;;;;;;;;5053237;28;20386;-81
2024/01/28 14:26:15;;;;;;;4.95;3.20;;;;;;;;;;5062199;28;20027;-83
2024/01/28 14:29:00;;;;;;;7.15;3.60;;;;;;;;;;5067497;28;20032;-84
2024/01/28 14:31:46;;;;;;;6.38;3.45;;;;;;;;;;5053461;28;20028;-86
2024/01/28 14:34:31;;;;;;;5.07;3.10;;;;;;;;;;5055430;28;20041;-82
2024/01/28 14:37:16;;;;;;;7.05;3.20;;;;;;;;;;5043768;28;20025;-82
2024/01/28 14:40:02;;;;;;;6.60;4.13;;;;;;;;;;5054767;28;20028;-84
2024/01/28 14:42:47;;;;;;;7.38;3.70;;;;;;;;;;5064164;28;20028;-83
2024/01/28 14:45:33;;;;;;;7.95;3.97;;;;;;;;;;5055826;28;20095;-83
2024/01/28 14:48:18;;;;;;;8.15;3.60;;;;;;;;;;5052381;28;20030;-83
2024/01/28 14:51:05;;;;;;;6.13;3.70;;;;;;;;;;5052185;28;20019;-83
2024/01/28 14:53:51;;;;;;;6.95;3.28;;;;;;;;;;5047677;28;20474;-83
2024/01/28 14:56:39;;;;;;;5.40;3.05;;;;;;;;;;5053638;28;20041;-82
2024/01/28 14:59:24;;;;;;;6.15;2.75;;;;;;;;;;5067350;28;20021;-82
2024/01/28 15:02:09;;;;;;;7.40;3.00;;;;;;;;;;5072899;28;20044;-84
2024/01/28 15:04:53;;;;;;;6.72;3.10;;;;;;;;;;5089828;28;20066;-84
2024/01/28 15:07:37;;;;;;;8.48;2.90;;;;;;;;;;5072917;28;20035;-86
2024/01/28 15:10:24;;;;;;;8.38;3.13;;;;;;;;;;5086513;28;20362;-86
2024/01/28 15:13:09;;;;;;;7.03;3.38;;;;;;;;;;5090602;28;20024;-86
2024/01/28 15:15:56;;;;;;;5.55;2.88;;;;;;;;;;5064057;28;20032;-84
2024/01/28 15:18:42;;;;;;;3.47;2.50;;;;;;;;;;5056262;28;20020;-85
2024/01/28 15:21:28;;;;;;;5.57;2.38;;;;;;;;;;5059887;28;20043;-82
2024/01/28 15:24:13;;;;;;;5.47;3.35;;;;;;;;;;5058638;28;20015;-83
2024/01/28 15:26:59;;;;;;;10.32;3.80;;;;;;;;;;5057315;28;20024;-82
2024/01/28 15:29:46;;;;;;;5.20;3.08;;;;;;;;;;5051543;28;21103;-82
2024/01/28 15:32:32;;;;;;;7.45;3.20;;;;;;;;;;5063641;28;20044;-82
2024/01/28 15:35:17;;;;;;;10.35;4.35;;;;;;;;;;5061049;28;20025;-81
2024/01/28 15:38:03;;;;;;;4.82;3.00;;;;;;;;;;5048708;28;20356;-80
2024/01/28 15:40:48;;;;;;;7.07;3.50;;;;;;;;;;5054793;28;20028;-80
2024/01/28 15:43:34;;;;;;;5.07;3.05;;;;;;;;;;5050881;28;20024;-81
2024/01/28 15:46:19;;;;;;;8.38;3.58;;;;;;;;;;5056780;28;20612;-82
2024/01/28 15:49:04;;;;;;;9.02;3.78;;;;;;;;;;5059989;28;20035;-81
2024/01/28 15:51:50;;;;;;;7.53;3.25;;;;;;;;;;5054144;28;20497;-81
2024/01/28 15:54:35;;;;;;;6.45;3.72;;;;;;;;;;5061851;28;20115;-81
2024/01/28 15:57:21;;;;;;;7.40;3.63;;;;;;;;;;5061428;28;20024;-83
2024/01/28 16:00:07;;;;;;;8.32;4.35;;;;;;;;;;5057340;28;20631;-82
2024/01/28 16:02:52;;;;;;;9.02;3.95;;;;;;;;;;5053411;28;20082;-83
2024/01/28 16:05:38;;;;;;;6.97;3.42;;;;;;;;;;5057397;28;20107;-82
2024/01/28 16:08:23;;;;;;;9.65;3.97;;;;;;;;;;5055132;28;20093;-82
2024/01/28 16:11:09;;;;;;;14.80;6.57;;;;;;;;;;5064148;28;20032;-83
2024/01/28 16:13:54;;;;;;;13.25;7.57;;;;;;;;;;5048071;28;20036;-82
2024/01/28 16:16:39;;;;;;;9.02;4.53;;;;;;;;;;5056012;28;21327;-82
2024/01/28 16:19:25;;;;;;;8.10;3.85;;;;;;;;;;5059536;28;20035;-81
2024/01/28 16:22:10;;;;;;;9.25;4.18;;;;;;;;;;5060132;28;20028;-83
2024/01/28 16:24:55;;;;;;;8.73;3.85;;;;;;;;;;5050272;28;20041;-83